sensor_id;sensor_type;location;lat;lon;timestamp;P1;durP1;ratioP1;P2;durP2;ratioP2
78410;SDS011;67706;51.074;-1.796;2023-08-06T00:01:45;1.55;;;0.95;;
78410;SDS011;67706;51.074;-1.796;2023-08-06T00:04:12;1.33;;;0.82;;
78410;SDS011;67706;51.074;-1.796;2023-08-06T00:06:40;1.35;;;0.90;;
78410;SDS011;67706;51.074;-1.796;2023-08-06T00:09:07;1.80;;;0.90;;
78410;SDS011;67706;51.074;-1.796;2023-08-06T00:11:33;2.38;;;1.17;;
78410;SDS011;67706;51.074;-1.796;2023-08-06T00:14:00;2.45;;;0.90;;
78410;SDS011;67706;51.074;-1.796;2023-08-06T00:16:27;2.00;;;1.23;;
78410;SDS011;67706;51.074;-1.796;2023-08-06T00:18:53;1.63;;;1.17;;
78410;SDS011;67706;51.074;-1.796;2023-08-06T00:21:20;1.90;;;0.90;;
78410;SDS011;67706;51.074;-1.796;2023-08-06T00:23:48;1.27;;;0.88;;
78410;SDS011;67706;51.074;-1.796;2023-08-06T00:26:15;1.27;;;0.90;;
78410;SDS011;67706;51.074;-1.796;2023-08-06T00:28:41;1.33;;;0.70;;
78410;SDS011;67706;51.074;-1.796;2023-08-06T00:31:08;1.58;;;0.80;;
78410;SDS011;67706;51.074;-1.796;2023-08-06T00:33:35;1.83;;;1.00;;
78410;SDS011;67706;51.074;-1.796;2023-08-06T00:36:01;1.67;;;0.85;;
78410;SDS011;67706;51.074;-1.796;2023-08-06T00:38:28;1.25;;;0.80;;
78410;SDS011;67706;51.074;-1.796;2023-08-06T00:40:56;2.67;;;1.10;;
78410;SDS011;67706;51.074;-1.796;2023-08-06T00:43:23;2.40;;;0.70;;
78410;SDS011;67706;51.074;-1.796;2023-08-06T00:45:49;3.15;;;0.95;;
78410;SDS011;67706;51.074;-1.796;2023-08-06T00:48:16;2.15;;;0.85;;
78410;SDS011;67706;51.074;-1.796;2023-08-06T00:50:43;2.08;;;1.05;;
78410;SDS011;67706;51.074;-1.796;2023-08-06T00:53:10;2.95;;;1.00;;
78410;SDS011;67706;51.074;-1.796;2023-08-06T00:55:37;1.20;;;0.88;;
78410;SDS011;67706;51.074;-1.796;2023-08-06T00:58:05;2.65;;;1.10;;
78410;SDS011;67706;51.074;-1.796;2023-08-06T01:00:32;1.65;;;0.90;;
78410;SDS011;67706;51.074;-1.796;2023-08-06T01:02:59;1.45;;;0.80;;
78410;SDS011;67706;51.074;-1.796;2023-08-06T01:05:26;2.58;;;0.90;;
78410;SDS011;67706;51.074;-1.796;2023-08-06T01:07:57;2.63;;;0.85;;
78410;SDS011;67706;51.074;-1.796;2023-08-06T01:10:39;1.80;;;0.88;;
78410;SDS011;67706;51.074;-1.796;2023-08-06T01:13:16;3.65;;;1.00;;
78410;SDS011;67706;51.074;-1.796;2023-08-06T01:15:49;2.38;;;1.20;;
78410;SDS011;67706;51.074;-1.796;2023-08-06T01:18:22;1.92;;;1.00;;
78410;SDS011;67706;51.074;-1.796;2023-08-06T01:20:50;3.45;;;1.10;;
78410;SDS011;67706;51.074;-1.796;2023-08-06T01:23:16;1.83;;;0.95;;
78410;SDS011;67706;51.074;-1.796;2023-08-06T01:25:46;2.30;;;1.10;;
78410;SDS011;67706;51.074;-1.796;2023-08-06T01:28:23;2.13;;;1.25;;
78410;SDS011;67706;51.074;-1.796;2023-08-06T01:31:01;2.25;;;0.90;;
78410;SDS011;67706;51.074;-1.796;2023-08-06T01:33:30;1.77;;;0.80;;
78410;SDS011;67706;51.074;-1.796;2023-08-06T01:36:00;2.13;;;1.15;;
78410;SDS011;67706;51.074;-1.796;2023-08-06T01:38:28;1.70;;;1.00;;
78410;SDS011;67706;51.074;-1.796;2023-08-06T01:40:55;4.53;;;1.27;;
78410;SDS011;67706;51.074;-1.796;2023-08-06T01:43:22;2.47;;;1.20;;
78410;SDS011;67706;51.074;-1.796;2023-08-06T01:45:48;1.70;;;0.93;;
78410;SDS011;67706;51.074;-1.796;2023-08-06T01:48:15;3.65;;;1.10;;
78410;SDS011;67706;51.074;-1.796;2023-08-06T01:50:42;2.33;;;1.00;;
78410;SDS011;67706;51.074;-1.796;2023-08-06T01:53:10;1.63;;;1.00;;
78410;SDS011;67706;51.074;-1.796;2023-08-06T01:55:36;2.25;;;1.15;;
78410;SDS011;67706;51.074;-1.796;2023-08-06T01:58:03;2.10;;;1.10;;
78410;SDS011;67706;51.074;-1.796;2023-08-06T02:00:30;3.65;;;1.30;;
78410;SDS011;67706;51.074;-1.796;2023-08-06T02:02:57;2.20;;;0.90;;
78410;SDS011;67706;51.074;-1.796;2023-08-06T02:05:23;2.97;;;1.10;;
78410;SDS011;67706;51.074;-1.796;2023-08-06T02:07:50;2.47;;;1.23;;
78410;SDS011;67706;51.074;-1.796;2023-08-06T02:10:18;2.65;;;1.27;;
78410;SDS011;67706;51.074;-1.796;2023-08-06T02:12:45;3.38;;;1.17;;
78410;SDS011;67706;51.074;-1.796;2023-08-06T02:15:11;1.77;;;1.02;;
78410;SDS011;67706;51.074;-1.796;2023-08-06T02:17:38;2.28;;;0.93;;
78410;SDS011;67706;51.074;-1.796;2023-08-06T02:20:05;2.28;;;0.93;;
78410;SDS011;67706;51.074;-1.796;2023-08-06T02:22:33;2.17;;;0.98;;
78410;SDS011;67706;51.074;-1.796;2023-08-06T02:24:59;2.42;;;1.00;;
78410;SDS011;67706;51.074;-1.796;2023-08-06T02:27:27;2.55;;;1.10;;
78410;SDS011;67706;51.074;-1.796;2023-08-06T02:29:54;3.90;;;1.15;;
78410;SDS011;67706;51.074;-1.796;2023-08-06T02:32:21;3.08;;;1.02;;
78410;SDS011;67706;51.074;-1.796;2023-08-06T02:34:48;3.53;;;1.02;;
78410;SDS011;67706;51.074;-1.796;2023-08-06T02:37:14;1.98;;;0.90;;
78410;SDS011;67706;51.074;-1.796;2023-08-06T02:39:41;5.35;;;1.10;;
78410;SDS011;67706;51.074;-1.796;2023-08-06T02:42:08;2.00;;;1.05;;
78410;SDS011;67706;51.074;-1.796;2023-08-06T02:44:36;3.17;;;1.23;;
78410;SDS011;67706;51.074;-1.796;2023-08-06T02:47:03;3.00;;;1.20;;
78410;SDS011;67706;51.074;-1.796;2023-08-06T02:49:30;2.55;;;1.00;;
78410;SDS011;67706;51.074;-1.796;2023-08-06T02:51:57;3.28;;;0.95;;
78410;SDS011;67706;51.074;-1.796;2023-08-06T02:54:23;1.90;;;0.93;;
78410;SDS011;67706;51.074;-1.796;2023-08-06T02:56:50;1.80;;;0.82;;
78410;SDS011;67706;51.074;-1.796;2023-08-06T02:59:17;4.75;;;1.30;;
78410;SDS011;67706;51.074;-1.796;2023-08-06T03:01:45;2.33;;;1.00;;
78410;SDS011;67706;51.074;-1.796;2023-08-06T03:04:11;1.73;;;0.90;;
78410;SDS011;67706;51.074;-1.796;2023-08-06T03:06:38;3.53;;;0.95;;
78410;SDS011;67706;51.074;-1.796;2023-08-06T03:09:05;2.80;;;1.58;;
78410;SDS011;67706;51.074;-1.796;2023-08-06T03:11:31;2.38;;;1.20;;
78410;SDS011;67706;51.074;-1.796;2023-08-06T03:13:58;3.35;;;1.10;;
78410;SDS011;67706;51.074;-1.796;2023-08-06T03:16:25;2.20;;;1.13;;
78410;SDS011;67706;51.074;-1.796;2023-08-06T03:18:53;2.60;;;0.80;;
78410;SDS011;67706;51.074;-1.796;2023-08-06T03:21:19;2.22;;;1.33;;
78410;SDS011;67706;51.074;-1.796;2023-08-06T03:23:46;3.15;;;1.10;;
78410;SDS011;67706;51.074;-1.796;2023-08-06T03:26:14;2.67;;;1.10;;
78410;SDS011;67706;51.074;-1.796;2023-08-06T03:28:40;1.77;;;0.98;;
78410;SDS011;67706;51.074;-1.796;2023-08-06T03:31:07;2.60;;;1.10;;
78410;SDS011;67706;51.074;-1.796;2023-08-06T03:33:34;2.10;;;1.00;;
78410;SDS011;67706;51.074;-1.796;2023-08-06T03:36:02;3.28;;;1.20;;
78410;SDS011;67706;51.074;-1.796;2023-08-06T03:38:29;2.28;;;1.40;;
78410;SDS011;67706;51.074;-1.796;2023-08-06T03:40:56;2.28;;;1.15;;
78410;SDS011;67706;51.074;-1.796;2023-08-06T03:43:22;1.60;;;1.02;;
78410;SDS011;67706;51.074;-1.796;2023-08-06T03:45:49;1.90;;;1.00;;
78410;SDS011;67706;51.074;-1.796;2023-08-06T03:48:16;3.25;;;0.80;;
78410;SDS011;67706;51.074;-1.796;2023-08-06T03:50:42;1.67;;;0.70;;
78410;SDS011;67706;51.074;-1.796;2023-08-06T03:53:10;2.03;;;1.05;;
78410;SDS011;67706;51.074;-1.796;2023-08-06T03:55:37;1.65;;;1.02;;
78410;SDS011;67706;51.074;-1.796;2023-08-06T03:58:03;2.17;;;1.17;;
78410;SDS011;67706;51.074;-1.796;2023-08-06T04:00:30;2.70;;;1.23;;
78410;SDS011;67706;51.074;-1.796;2023-08-06T04:02:57;2.15;;;1.10;;
78410;SDS011;67706;51.074;-1.796;2023-08-06T04:05:23;2.67;;;0.75;;
78410;SDS011;67706;51.074;-1.796;2023-08-06T04:07:50;3.20;;;1.30;;
78410;SDS011;67706;51.074;-1.796;2023-08-06T04:10:18;5.38;;;1.10;;
78410;SDS011;67706;51.074;-1.796;2023-08-06T04:12:45;2.40;;;0.90;;
78410;SDS011;67706;51.074;-1.796;2023-08-06T04:15:12;2.08;;;1.05;;
78410;SDS011;67706;51.074;-1.796;2023-08-06T04:17:39;1.60;;;0.90;;
78410;SDS011;67706;51.074;-1.796;2023-08-06T04:20:06;3.20;;;1.20;;
78410;SDS011;67706;51.074;-1.796;2023-08-06T04:22:33;2.40;;;0.98;;
78410;SDS011;67706;51.074;-1.796;2023-08-06T04:25:00;2.08;;;1.00;;
78410;SDS011;67706;51.074;-1.796;2023-08-06T04:27:28;1.83;;;0.90;;
78410;SDS011;67706;51.074;-1.796;2023-08-06T04:29:55;3.22;;;1.15;;
78410;SDS011;67706;51.074;-1.796;2023-08-06T04:32:22;2.72;;;0.90;;
78410;SDS011;67706;51.074;-1.796;2023-08-06T04:34:48;2.65;;;1.10;;
78410;SDS011;67706;51.074;-1.796;2023-08-06T04:37:15;2.45;;;1.27;;
78410;SDS011;67706;51.074;-1.796;2023-08-06T04:39:42;3.25;;;1.20;;
78410;SDS011;67706;51.074;-1.796;2023-08-06T04:42:08;4.38;;;1.10;;
78410;SDS011;67706;51.074;-1.796;2023-08-06T04:44:37;3.40;;;1.17;;
78410;SDS011;67706;51.074;-1.796;2023-08-06T04:47:03;2.55;;;1.10;;
78410;SDS011;67706;51.074;-1.796;2023-08-06T04:49:30;6.55;;;1.35;;
78410;SDS011;67706;51.074;-1.796;2023-08-06T04:51:57;3.08;;;1.20;;
78410;SDS011;67706;51.074;-1.796;2023-08-06T04:54:23;3.40;;;1.10;;
78410;SDS011;67706;51.074;-1.796;2023-08-06T04:56:50;2.20;;;1.30;;
78410;SDS011;67706;51.074;-1.796;2023-08-06T04:59:17;1.25;;;0.90;;
78410;SDS011;67706;51.074;-1.796;2023-08-06T05:01:45;1.67;;;1.00;;
78410;SDS011;67706;51.074;-1.796;2023-08-06T05:04:11;3.33;;;1.20;;
78410;SDS011;67706;51.074;-1.796;2023-08-06T05:06:38;3.28;;;1.15;;
78410;SDS011;67706;51.074;-1.796;2023-08-06T05:09:05;2.45;;;1.20;;
78410;SDS011;67706;51.074;-1.796;2023-08-06T05:11:32;2.60;;;1.05;;
78410;SDS011;67706;51.074;-1.796;2023-08-06T05:13:58;1.75;;;0.90;;
78410;SDS011;67706;51.074;-1.796;2023-08-06T05:16:25;1.80;;;1.13;;
78410;SDS011;67706;51.074;-1.796;2023-08-06T05:18:53;2.65;;;1.05;;
78410;SDS011;67706;51.074;-1.796;2023-08-06T05:21:20;1.73;;;0.85;;
78410;SDS011;67706;51.074;-1.796;2023-08-06T05:23:46;2.22;;;1.00;;
78410;SDS011;67706;51.074;-1.796;2023-08-06T05:26:13;2.13;;;1.05;;
78410;SDS011;67706;51.074;-1.796;2023-08-06T05:28:43;3.63;;;1.17;;
78410;SDS011;67706;51.074;-1.796;2023-08-06T05:31:10;3.75;;;0.98;;
78410;SDS011;67706;51.074;-1.796;2023-08-06T05:33:37;2.83;;;1.15;;
78410;SDS011;67706;51.074;-1.796;2023-08-06T05:36:05;2.40;;;1.10;;
78410;SDS011;67706;51.074;-1.796;2023-08-06T05:38:32;2.65;;;0.98;;
78410;SDS011;67706;51.074;-1.796;2023-08-06T05:40:58;3.00;;;1.10;;
78410;SDS011;67706;51.074;-1.796;2023-08-06T05:43:25;1.63;;;1.00;;
78410;SDS011;67706;51.074;-1.796;2023-08-06T05:45:52;3.90;;;1.20;;
78410;SDS011;67706;51.074;-1.796;2023-08-06T05:48:18;1.65;;;0.70;;
78410;SDS011;67706;51.074;-1.796;2023-08-06T05:50:47;3.10;;;1.33;;
78410;SDS011;67706;51.074;-1.796;2023-08-06T05:53:15;3.22;;;1.40;;
78410;SDS011;67706;51.074;-1.796;2023-08-06T05:55:42;2.78;;;1.30;;
78410;SDS011;67706;51.074;-1.796;2023-08-06T05:58:09;3.50;;;0.93;;
78410;SDS011;67706;51.074;-1.796;2023-08-06T06:00:36;2.72;;;1.10;;
78410;SDS011;67706;51.074;-1.796;2023-08-06T06:03:03;2.78;;;1.10;;
78410;SDS011;67706;51.074;-1.796;2023-08-06T06:05:30;3.03;;;0.90;;
78410;SDS011;67706;51.074;-1.796;2023-08-06T06:07:56;2.45;;;1.10;;
78410;SDS011;67706;51.074;-1.796;2023-08-06T06:10:24;3.13;;;1.27;;
78410;SDS011;67706;51.074;-1.796;2023-08-06T06:12:51;3.63;;;0.80;;
78410;SDS011;67706;51.074;-1.796;2023-08-06T06:15:17;4.97;;;1.30;;
78410;SDS011;67706;51.074;-1.796;2023-08-06T06:17:44;2.83;;;1.20;;
78410;SDS011;67706;51.074;-1.796;2023-08-06T06:20:11;1.70;;;1.20;;
78410;SDS011;67706;51.074;-1.796;2023-08-06T06:22:38;1.95;;;0.80;;
78410;SDS011;67706;51.074;-1.796;2023-08-06T06:25:05;2.55;;;1.10;;
78410;SDS011;67706;51.074;-1.796;2023-08-06T06:27:34;4.03;;;1.50;;
78410;SDS011;67706;51.074;-1.796;2023-08-06T06:30:00;3.25;;;1.27;;
78410;SDS011;67706;51.074;-1.796;2023-08-06T06:32:27;3.72;;;1.38;;
78410;SDS011;67706;51.074;-1.796;2023-08-06T06:34:54;4.78;;;1.08;;
78410;SDS011;67706;51.074;-1.796;2023-08-06T06:37:21;4.40;;;1.00;;
78410;SDS011;67706;51.074;-1.796;2023-08-06T06:39:48;2.53;;;1.00;;
78410;SDS011;67706;51.074;-1.796;2023-08-06T06:42:15;1.08;;;0.77;;
78410;SDS011;67706;51.074;-1.796;2023-08-06T06:44:43;1.98;;;0.95;;
78410;SDS011;67706;51.074;-1.796;2023-08-06T06:47:09;2.15;;;0.65;;
78410;SDS011;67706;51.074;-1.796;2023-08-06T06:49:36;1.45;;;0.73;;
78410;SDS011;67706;51.074;-1.796;2023-08-06T06:52:03;1.05;;;0.70;;
78410;SDS011;67706;51.074;-1.796;2023-08-06T06:54:30;2.33;;;0.98;;
78410;SDS011;67706;51.074;-1.796;2023-08-06T06:56:57;1.63;;;0.95;;
78410;SDS011;67706;51.074;-1.796;2023-08-06T06:59:23;2.20;;;0.70;;
78410;SDS011;67706;51.074;-1.796;2023-08-06T07:01:51;2.10;;;0.90;;
78410;SDS011;67706;51.074;-1.796;2023-08-06T07:04:18;2.40;;;0.68;;
78410;SDS011;67706;51.074;-1.796;2023-08-06T07:06:45;3.38;;;0.80;;
78410;SDS011;67706;51.074;-1.796;2023-08-06T07:09:12;3.22;;;0.70;;
78410;SDS011;67706;51.074;-1.796;2023-08-06T07:11:38;1.10;;;0.73;;
78410;SDS011;67706;51.074;-1.796;2023-08-06T07:14:07;1.58;;;0.90;;
78410;SDS011;67706;51.074;-1.796;2023-08-06T07:16:34;2.28;;;0.93;;
78410;SDS011;67706;51.074;-1.796;2023-08-06T07:19:02;3.58;;;1.13;;
78410;SDS011;67706;51.074;-1.796;2023-08-06T07:21:30;1.92;;;0.90;;
78410;SDS011;67706;51.074;-1.796;2023-08-06T07:23:57;2.70;;;0.77;;
78410;SDS011;67706;51.074;-1.796;2023-08-06T07:26:24;1.60;;;0.93;;
78410;SDS011;67706;51.074;-1.796;2023-08-06T07:28:51;4.63;;;1.10;;
78410;SDS011;67706;51.074;-1.796;2023-08-06T07:31:18;3.03;;;0.77;;
78410;SDS011;67706;51.074;-1.796;2023-08-06T07:33:45;1.08;;;0.45;;
78410;SDS011;67706;51.074;-1.796;2023-08-06T07:36:13;4.57;;;0.90;;
78410;SDS011;67706;51.074;-1.796;2023-08-06T07:38:40;1.48;;;0.85;;
78410;SDS011;67706;51.074;-1.796;2023-08-06T07:41:08;2.38;;;0.85;;
78410;SDS011;67706;51.074;-1.796;2023-08-06T07:43:34;1.73;;;0.60;;
78410;SDS011;67706;51.074;-1.796;2023-08-06T07:46:01;1.23;;;0.70;;
78410;SDS011;67706;51.074;-1.796;2023-08-06T07:48:28;1.55;;;0.90;;
78410;SDS011;67706;51.074;-1.796;2023-08-06T07:50:55;2.15;;;0.75;;
78410;SDS011;67706;51.074;-1.796;2023-08-06T07:53:24;1.55;;;0.80;;
78410;SDS011;67706;51.074;-1.796;2023-08-06T07:55:54;2.67;;;0.95;;
78410;SDS011;67706;51.074;-1.796;2023-08-06T07:58:22;4.10;;;1.00;;
78410;SDS011;67706;51.074;-1.796;2023-08-06T08:00:50;3.45;;;0.98;;
78410;SDS011;67706;51.074;-1.796;2023-08-06T08:03:17;2.03;;;0.70;;
78410;SDS011;67706;51.074;-1.796;2023-08-06T08:05:44;2.08;;;0.75;;
78410;SDS011;67706;51.074;-1.796;2023-08-06T08:08:11;2.60;;;0.70;;
78410;SDS011;67706;51.074;-1.796;2023-08-06T08:10:39;1.75;;;0.50;;
78410;SDS011;67706;51.074;-1.796;2023-08-06T08:13:06;1.00;;;0.80;;
78410;SDS011;67706;51.074;-1.796;2023-08-06T08:15:32;3.53;;;0.70;;
78410;SDS011;67706;51.074;-1.796;2023-08-06T08:18:00;3.58;;;0.68;;
78410;SDS011;67706;51.074;-1.796;2023-08-06T08:20:27;1.38;;;0.63;;
78410;SDS011;67706;51.074;-1.796;2023-08-06T08:22:56;2.28;;;0.60;;
78410;SDS011;67706;51.074;-1.796;2023-08-06T08:25:24;4.15;;;0.85;;
78410;SDS011;67706;51.074;-1.796;2023-08-06T08:27:53;4.55;;;0.85;;
78410;SDS011;67706;51.074;-1.796;2023-08-06T08:30:20;2.47;;;0.65;;
78410;SDS011;67706;51.074;-1.796;2023-08-06T08:32:47;1.33;;;0.65;;
78410;SDS011;67706;51.074;-1.796;2023-08-06T08:35:14;2.53;;;0.60;;
78410;SDS011;67706;51.074;-1.796;2023-08-06T08:37:41;1.90;;;0.88;;
78410;SDS011;67706;51.074;-1.796;2023-08-06T08:40:08;1.20;;;0.63;;
78410;SDS011;67706;51.074;-1.796;2023-08-06T08:42:35;0.75;;;0.50;;
78410;SDS011;67706;51.074;-1.796;2023-08-06T08:45:04;3.00;;;0.70;;
78410;SDS011;67706;51.074;-1.796;2023-08-06T08:47:36;3.28;;;0.90;;
78410;SDS011;67706;51.074;-1.796;2023-08-06T08:50:05;2.58;;;0.80;;
78410;SDS011;67706;51.074;-1.796;2023-08-06T08:52:34;1.30;;;0.60;;
78410;SDS011;67706;51.074;-1.796;2023-08-06T08:55:02;0.60;;;0.47;;
78410;SDS011;67706;51.074;-1.796;2023-08-06T08:57:29;0.85;;;0.60;;
78410;SDS011;67706;51.074;-1.796;2023-08-06T08:59:55;1.38;;;0.60;;
78410;SDS011;67706;51.074;-1.796;2023-08-06T09:02:24;0.60;;;0.40;;
78410;SDS011;67706;51.074;-1.796;2023-08-06T09:04:54;2.00;;;0.40;;
78410;SDS011;67706;51.074;-1.796;2023-08-06T09:07:24;0.85;;;0.43;;
78410;SDS011;67706;51.074;-1.796;2023-08-06T09:09:53;1.73;;;0.40;;
78410;SDS011;67706;51.074;-1.796;2023-08-06T09:12:20;0.85;;;0.40;;
78410;SDS011;67706;51.074;-1.796;2023-08-06T09:14:48;0.82;;;0.40;;
78410;SDS011;67706;51.074;-1.796;2023-08-06T09:17:15;1.83;;;0.70;;
78410;SDS011;67706;51.074;-1.796;2023-08-06T09:19:46;1.48;;;0.45;;
78410;SDS011;67706;51.074;-1.796;2023-08-06T09:22:14;0.77;;;0.40;;
78410;SDS011;67706;51.074;-1.796;2023-08-06T09:24:42;0.63;;;0.30;;
78410;SDS011;67706;51.074;-1.796;2023-08-06T09:27:12;0.57;;;0.35;;
78410;SDS011;67706;51.074;-1.796;2023-08-06T09:29:40;0.57;;;0.40;;
78410;SDS011;67706;51.074;-1.796;2023-08-06T09:32:08;1.10;;;0.90;;
78410;SDS011;67706;51.074;-1.796;2023-08-06T09:34:35;1.02;;;0.40;;
78410;SDS011;67706;51.074;-1.796;2023-08-06T09:37:08;1.23;;;0.30;;
78410;SDS011;67706;51.074;-1.796;2023-08-06T09:39:36;3.30;;;0.52;;
78410;SDS011;67706;51.074;-1.796;2023-08-06T09:42:05;0.75;;;0.30;;
78410;SDS011;67706;51.074;-1.796;2023-08-06T09:44:32;0.63;;;0.30;;
78410;SDS011;67706;51.074;-1.796;2023-08-06T09:47:00;0.75;;;0.45;;
78410;SDS011;67706;51.074;-1.796;2023-08-06T09:49:39;1.10;;;0.40;;
78410;SDS011;67706;51.074;-1.796;2023-08-06T09:52:09;0.90;;;0.30;;
78410;SDS011;67706;51.074;-1.796;2023-08-06T09:54:39;2.72;;;0.32;;
78410;SDS011;67706;51.074;-1.796;2023-08-06T09:57:06;1.92;;;0.47;;
78410;SDS011;67706;51.074;-1.796;2023-08-06T09:59:32;0.40;;;0.20;;
78410;SDS011;67706;51.074;-1.796;2023-08-06T10:02:00;0.45;;;0.38;;
78410;SDS011;67706;51.074;-1.796;2023-08-06T10:04:27;0.45;;;0.20;;
78410;SDS011;67706;51.074;-1.796;2023-08-06T10:06:55;0.25;;;0.15;;
78410;SDS011;67706;51.074;-1.796;2023-08-06T10:09:25;0.98;;;0.50;;
78410;SDS011;67706;51.074;-1.796;2023-08-06T10:11:51;0.40;;;0.28;;
78410;SDS011;67706;51.074;-1.796;2023-08-06T10:14:20;0.30;;;0.10;;
78410;SDS011;67706;51.074;-1.796;2023-08-06T10:16:50;0.50;;;0.30;;
78410;SDS011;67706;51.074;-1.796;2023-08-06T10:19:17;2.17;;;0.40;;
78410;SDS011;67706;51.074;-1.796;2023-08-06T10:24:51;0.65;;;0.40;;
78410;SDS011;67706;51.074;-1.796;2023-08-06T10:27:19;0.57;;;0.22;;
78410;SDS011;67706;51.074;-1.796;2023-08-06T10:29:49;0.50;;;0.35;;
78410;SDS011;67706;51.074;-1.796;2023-08-06T10:32:16;0.90;;;0.15;;
78410;SDS011;67706;51.074;-1.796;2023-08-06T10:34:53;0.13;;;0.13;;
78410;SDS011;67706;51.074;-1.796;2023-08-06T10:37:23;1.35;;;0.30;;
78410;SDS011;67706;51.074;-1.796;2023-08-06T10:39:52;0.52;;;0.20;;
78410;SDS011;67706;51.074;-1.796;2023-08-06T10:42:19;0.95;;;0.28;;
78410;SDS011;67706;51.074;-1.796;2023-08-06T10:47:39;0.57;;;0.43;;
78410;SDS011;67706;51.074;-1.796;2023-08-06T10:50:06;0.88;;;0.30;;
78410;SDS011;67706;51.074;-1.796;2023-08-06T10:52:33;1.20;;;0.20;;
78410;SDS011;67706;51.074;-1.796;2023-08-06T10:55:01;2.25;;;0.47;;
78410;SDS011;67706;51.074;-1.796;2023-08-06T10:57:28;1.73;;;0.50;;
78410;SDS011;67706;51.074;-1.796;2023-08-06T10:59:55;1.85;;;0.30;;
78410;SDS011;67706;51.074;-1.796;2023-08-06T11:02:21;2.85;;;0.63;;
78410;SDS011;67706;51.074;-1.796;2023-08-06T11:04:49;1.63;;;0.40;;
78410;SDS011;67706;51.074;-1.796;2023-08-06T11:07:15;1.15;;;0.40;;
78410;SDS011;67706;51.074;-1.796;2023-08-06T11:09:42;1.95;;;0.85;;
78410;SDS011;67706;51.074;-1.796;2023-08-06T11:12:10;0.60;;;0.30;;
78410;SDS011;67706;51.074;-1.796;2023-08-06T11:14:37;0.85;;;0.40;;
78410;SDS011;67706;51.074;-1.796;2023-08-06T11:17:04;0.73;;;0.30;;
78410;SDS011;67706;51.074;-1.796;2023-08-06T11:19:31;0.30;;;0.20;;
78410;SDS011;67706;51.074;-1.796;2023-08-06T11:21:58;1.95;;;0.20;;
78410;SDS011;67706;51.074;-1.796;2023-08-06T11:24:26;1.52;;;0.28;;
78410;SDS011;67706;51.074;-1.796;2023-08-06T11:26:53;1.23;;;0.30;;
78410;SDS011;67706;51.074;-1.796;2023-08-06T11:29:21;0.28;;;0.20;;
78410;SDS011;67706;51.074;-1.796;2023-08-06T11:31:49;1.30;;;0.28;;
78410;SDS011;67706;51.074;-1.796;2023-08-06T11:34:16;0.13;;;0.10;;
78410;SDS011;67706;51.074;-1.796;2023-08-06T11:36:42;0.20;;;0.15;;
78410;SDS011;67706;51.074;-1.796;2023-08-06T11:39:09;0.20;;;0.10;;
78410;SDS011;67706;51.074;-1.796;2023-08-06T11:41:36;2.20;;;0.60;;
78410;SDS011;67706;51.074;-1.796;2023-08-06T11:44:04;0.45;;;0.40;;
78410;SDS011;67706;51.074;-1.796;2023-08-06T11:49:18;0.60;;;0.20;;
78410;SDS011;67706;51.074;-1.796;2023-08-06T11:51:47;0.60;;;0.20;;
78410;SDS011;67706;51.074;-1.796;2023-08-06T11:54:14;0.38;;;0.10;;
78410;SDS011;67706;51.074;-1.796;2023-08-06T11:56:40;0.30;;;0.20;;
78410;SDS011;67706;51.074;-1.796;2023-08-06T11:59:08;1.35;;;0.32;;
78410;SDS011;67706;51.074;-1.796;2023-08-06T12:01:35;1.27;;;0.30;;
78410;SDS011;67706;51.074;-1.796;2023-08-06T12:04:05;0.40;;;0.10;;
78410;SDS011;67706;51.074;-1.796;2023-08-06T12:06:41;1.70;;;0.20;;
78410;SDS011;67706;51.074;-1.796;2023-08-06T12:09:09;0.13;;;0.10;;
78410;SDS011;67706;51.074;-1.796;2023-08-06T12:11:36;0.60;;;0.30;;
78410;SDS011;67706;51.074;-1.796;2023-08-06T12:14:02;0.32;;;0.22;;
78410;SDS011;67706;51.074;-1.796;2023-08-06T12:16:29;0.30;;;0.20;;
78410;SDS011;67706;51.074;-1.796;2023-08-06T12:18:56;1.13;;;0.25;;
78410;SDS011;67706;51.074;-1.796;2023-08-06T12:21:24;0.43;;;0.20;;
78410;SDS011;67706;51.074;-1.796;2023-08-06T12:23:50;0.47;;;0.30;;
78410;SDS011;67706;51.074;-1.796;2023-08-06T12:26:17;0.90;;;0.28;;
78410;SDS011;67706;51.074;-1.796;2023-08-06T12:28:44;2.13;;;0.40;;
78410;SDS011;67706;51.074;-1.796;2023-08-06T12:31:11;0.38;;;0.32;;
78410;SDS011;67706;51.074;-1.796;2023-08-06T12:33:37;0.90;;;0.35;;
78410;SDS011;67706;51.074;-1.796;2023-08-06T12:36:04;1.10;;;0.40;;
78410;SDS011;67706;51.074;-1.796;2023-08-06T12:38:32;2.58;;;0.30;;
78410;SDS011;67706;51.074;-1.796;2023-08-06T12:40:59;0.63;;;0.43;;
78410;SDS011;67706;51.074;-1.796;2023-08-06T12:43:25;1.25;;;0.40;;
78410;SDS011;67706;51.074;-1.796;2023-08-06T12:45:52;1.25;;;0.20;;
78410;SDS011;67706;51.074;-1.796;2023-08-06T12:48:19;0.70;;;0.30;;
78410;SDS011;67706;51.074;-1.796;2023-08-06T12:50:45;1.17;;;0.30;;
78410;SDS011;67706;51.074;-1.796;2023-08-06T12:53:12;0.50;;;0.20;;
78410;SDS011;67706;51.074;-1.796;2023-08-06T12:55:40;0.68;;;0.20;;
78410;SDS011;67706;51.074;-1.796;2023-08-06T12:58:08;0.80;;;0.32;;
78410;SDS011;67706;51.074;-1.796;2023-08-06T13:00:35;0.75;;;0.30;;
78410;SDS011;67706;51.074;-1.796;2023-08-06T13:03:02;1.58;;;0.30;;
78410;SDS011;67706;51.074;-1.796;2023-08-06T13:05:29;0.38;;;0.30;;
78410;SDS011;67706;51.074;-1.796;2023-08-06T13:07:55;2.15;;;0.38;;
78410;SDS011;67706;51.074;-1.796;2023-08-06T13:10:25;1.50;;;0.50;;
78410;SDS011;67706;51.074;-1.796;2023-08-06T13:12:55;0.77;;;0.30;;
78410;SDS011;67706;51.074;-1.796;2023-08-06T13:15:23;1.35;;;0.50;;
78410;SDS011;67706;51.074;-1.796;2023-08-06T13:17:50;2.50;;;0.45;;
78410;SDS011;67706;51.074;-1.796;2023-08-06T13:20:17;0.40;;;0.30;;
78410;SDS011;67706;51.074;-1.796;2023-08-06T13:22:45;1.70;;;0.63;;
78410;SDS011;67706;51.074;-1.796;2023-08-06T13:25:18;2.53;;;0.35;;
78410;SDS011;67706;51.074;-1.796;2023-08-06T13:27:46;0.60;;;0.30;;
78410;SDS011;67706;51.074;-1.796;2023-08-06T13:30:18;1.75;;;0.30;;
78410;SDS011;67706;51.074;-1.796;2023-08-06T13:32:45;0.65;;;0.30;;
78410;SDS011;67706;51.074;-1.796;2023-08-06T13:35:13;2.13;;;0.40;;
78410;SDS011;67706;51.074;-1.796;2023-08-06T13:37:40;0.43;;;0.22;;
78410;SDS011;67706;51.074;-1.796;2023-08-06T13:40:08;1.55;;;0.20;;
78410;SDS011;67706;51.074;-1.796;2023-08-06T13:42:35;0.30;;;0.30;;
78410;SDS011;67706;51.074;-1.796;2023-08-06T13:45:03;2.30;;;0.40;;
78410;SDS011;67706;51.074;-1.796;2023-08-06T13:47:32;0.30;;;0.30;;
78410;SDS011;67706;51.074;-1.796;2023-08-06T13:49:59;1.95;;;0.50;;
78410;SDS011;67706;51.074;-1.796;2023-08-06T13:52:28;0.60;;;0.40;;
78410;SDS011;67706;51.074;-1.796;2023-08-06T13:54:56;0.50;;;0.40;;
78410;SDS011;67706;51.074;-1.796;2023-08-06T13:57:22;1.27;;;0.38;;
78410;SDS011;67706;51.074;-1.796;2023-08-06T13:59:50;2.25;;;0.50;;
78410;SDS011;67706;51.074;-1.796;2023-08-06T14:02:16;1.15;;;0.50;;
78410;SDS011;67706;51.074;-1.796;2023-08-06T14:04:44;0.75;;;0.38;;
78410;SDS011;67706;51.074;-1.796;2023-08-06T14:07:11;1.67;;;0.50;;
78410;SDS011;67706;51.074;-1.796;2023-08-06T14:09:39;0.32;;;0.20;;
78410;SDS011;67706;51.074;-1.796;2023-08-06T14:12:07;0.80;;;0.45;;
78410;SDS011;67706;51.074;-1.796;2023-08-06T14:14:35;1.27;;;0.40;;
78410;SDS011;67706;51.074;-1.796;2023-08-06T14:17:03;0.25;;;0.20;;
78410;SDS011;67706;51.074;-1.796;2023-08-06T14:19:30;0.60;;;0.30;;
78410;SDS011;67706;51.074;-1.796;2023-08-06T14:21:58;1.38;;;0.50;;
78410;SDS011;67706;51.074;-1.796;2023-08-06T14:24:25;0.60;;;0.30;;
78410;SDS011;67706;51.074;-1.796;2023-08-06T14:26:52;1.05;;;0.50;;
78410;SDS011;67706;51.074;-1.796;2023-08-06T14:29:20;0.73;;;0.40;;
78410;SDS011;67706;51.074;-1.796;2023-08-06T14:31:47;1.35;;;0.50;;
78410;SDS011;67706;51.074;-1.796;2023-08-06T14:34:14;0.57;;;0.30;;
78410;SDS011;67706;51.074;-1.796;2023-08-06T14:36:41;0.88;;;0.50;;
78410;SDS011;67706;51.074;-1.796;2023-08-06T14:39:10;2.78;;;0.60;;
78410;SDS011;67706;51.074;-1.796;2023-08-06T14:41:37;2.08;;;0.70;;
78410;SDS011;67706;51.074;-1.796;2023-08-06T14:44:04;2.85;;;0.70;;